Time;durP1;ratioP1;P1;durP2;ratioP2;P2;SDS_P1;SDS_P2;PMS_P1;PMS_P2;Temp;Humidity;BMP_temperature;BMP_pressure;BME280_temperature;BME280_humidity;BME280_pressure;Samples;Min_cycle;Max_cycle;Signal;HPM_P1;HPM_P2
2023/01/25 00:01:52;;;;;;;39.78;21.67;;;0.50;99.90;;;;;;5076292;28;20045;-83
2023/01/25 00:04:19;;;;;;;36.03;20.65;;;1.10;99.90;;;;;;5075620;28;20349;-82
2023/01/25 00:06:45;;;;;;;40.88;23.00;;;0.50;99.90;;;;;;5076653;28;20059;-82
2023/01/25 00:09:11;;;;;;;37.17;21.58;;;1.20;99.90;;;;;;5076458;28;20037;-82
2023/01/25 00:11:37;;;;;;;35.37;21.10;;;0.50;99.90;;;;;;5075879;28;20395;-84
2023/01/25 00:14:04;;;;;;;41.03;23.15;;;0.60;99.90;;;;;;5075053;28;20056;-84
2023/01/25 00:16:30;;;;;;;41.00;23.08;;;0.60;99.90;;;;;;5058932;28;20088;-84
2023/01/25 00:18:56;;;;;;;35.80;20.63;;;0.60;99.90;;;;;;5075298;28;20051;-82
2023/01/25 00:21:23;;;;;;;38.13;22.23;;;0.60;99.90;;;;;;5075293;28;20287;-82
2023/01/25 00:23:49;;;;;;;37.13;21.80;;;0.50;99.90;;;;;;5075278;28;20082;-82
2023/01/25 00:26:15;;;;;;;37.97;23.13;;;0.60;99.90;;;;;;5058686;28;20419;-82
2023/01/25 00:28:41;;;;;;;37.85;21.35;;;0.50;99.90;;;;;;5074948;28;20044;-84
2023/01/25 00:31:09;;;;;;;38.35;21.70;;;2.00;99.90;;;;;;5075010;28;20123;-81
2023/01/25 00:33:39;;;;;;;35.70;21.95;;;0.50;99.90;;;;;;5074929;28;20475;-83
2023/01/25 00:36:31;;;;;;;36.70;20.85;;;0.60;99.90;;;;;;5076035;28;20502;-84
2023/01/25 00:38:57;;;;;;;35.20;21.00;;;0.50;99.90;;;;;;5074661;28;20044;-83
2023/01/25 00:41:23;;;;;;;36.55;21.23;;;0.60;99.90;;;;;;5076395;28;20044;-83
2023/01/25 00:43:49;;;;;;;36.78;20.83;;;0.80;99.90;;;;;;5075802;28;20503;-81
2023/01/25 00:46:16;;;;;;;34.90;19.90;;;0.60;99.90;;;;;;5075679;28;20047;-82
2023/01/25 00:48:42;;;;;;;35.40;20.88;;;1.30;99.90;;;;;;5074416;28;20399;-83
2023/01/25 00:51:07;;;;;;;33.92;20.02;;;1.00;99.90;;;;;;5075742;28;20053;-84
2023/01/25 00:53:33;;;;;;;35.90;19.98;;;0.60;99.90;;;;;;5074655;28;20550;-83
2023/01/25 00:55:59;;;;;;;37.42;20.00;;;0.60;99.90;;;;;;5075923;28;20059;-83
2023/01/25 00:58:24;;;;;;;33.47;20.95;;;0.60;99.90;;;;;;5075191;28;20521;-85
2023/01/25 01:00:54;;;;;;;36.60;19.98;;;0.50;99.90;;;;;;5075564;28;20128;-83
2023/01/25 01:03:19;;;;;;;34.20;20.58;;;1.90;99.90;;;;;;5074580;28;20040;-82
2023/01/25 01:05:45;;;;;;;36.40;20.63;;;0.50;99.90;;;;;;5075430;28;20141;-83
2023/01/25 01:08:12;;;;;;;35.38;19.70;;;0.60;99.90;;;;;;5074208;28;20048;-82
2023/01/25 01:10:38;;;;;;;;;;;0.50;99.90;;;;;;5075955;28;20400;-81
2023/01/25 01:13:04;;;;;;;36.67;21.17;;;0.60;99.90;;;;;;5075319;28;19924;-83
2023/01/25 01:15:30;;;;;;;34.17;19.67;;;0.50;99.90;;;;;;5073733;28;20047;-83
2023/01/25 01:17:55;;;;;;;37.50;20.98;;;0.60;99.90;;;;;;5075236;28;20040;-84
2023/01/25 01:20:21;;;;;;;40.60;21.92;;;0.50;99.90;;;;;;5075020;28;20045;-84
2023/01/25 01:22:47;;;;;;;37.45;21.45;;;1.50;99.90;;;;;;5075178;28;20040;-84
2023/01/25 01:25:12;;;;;;;36.13;19.38;;;1.00;99.90;;;;;;5075214;28;20079;-84
2023/01/25 01:27:38;;;;;;;34.88;19.63;;;0.40;99.90;;;;;;5074033;28;20044;-85
2023/01/25 01:30:05;;;;;;;35.03;20.35;;;0.40;99.90;;;;;;5073595;28;20052;-84
2023/01/25 01:32:30;;;;;;;38.03;20.50;;;0.40;99.90;;;;;;5073683;28;20044;-82
2023/01/25 01:34:56;;;;;;;41.10;21.88;;;3.60;99.90;;;;;;5073934;28;20040;-83
2023/01/25 01:37:22;;;;;;;40.45;22.25;;;0.30;99.90;;;;;;5074906;28;20434;-82
2023/01/25 01:39:47;;;;;;;39.42;21.23;;;0.30;99.90;;;;;;5073688;28;20046;-84
2023/01/25 01:42:13;;;;;;;38.13;22.27;;;0.30;99.90;;;;;;5074381;28;20384;-83
2023/01/25 01:44:52;;;;;;;37.92;21.15;;;0.40;99.90;;;;;;5074658;28;20095;-85
2023/01/25 01:47:21;;;;;;;41.25;22.00;;;0.40;99.90;;;;;;5074562;28;20044;-82
2023/01/25 01:49:53;;;;;;;40.75;22.73;;;0.50;99.90;;;;;;5074588;28;20053;-84
2023/01/25 01:52:23;;;;;;;42.28;23.05;;;0.50;99.90;;;;;;5074565;28;20087;-83
2023/01/25 01:54:57;;;;;;;41.42;22.65;;;0.50;99.90;;;;;;5073307;28;20048;-84
2023/01/25 01:57:39;;;;;;;39.00;22.33;;;0.60;99.90;;;;;;5074446;28;20056;-84
2023/01/25 02:00:10;;;;;;;43.97;23.95;;;0.50;99.90;;;;;;5073389;28;20119;-84
2023/01/25 02:02:36;;;;;;;44.50;24.70;;;0.50;99.90;;;;;;5073766;28;20430;-81
2023/01/25 02:05:05;;;;;;;47.72;24.38;;;0.50;99.90;;;;;;5073167;28;20094;-84
2023/01/25 02:07:33;;;;;;;44.00;24.70;;;0.40;99.90;;;;;;5074159;28;20087;-83
2023/01/25 02:10:00;;;;;;;42.42;24.08;;;0.50;99.90;;;;;;5072171;28;20430;-83
2023/01/25 02:12:27;;;;;;;43.00;23.83;;;1.50;99.90;;;;;;5072698;28;20479;-82
2023/01/25 02:14:53;;;;;;;46.22;24.55;;;0.40;99.90;;;;;;5074172;28;20040;-84
2023/01/25 02:17:27;;;;;;;47.13;24.33;;;0.30;99.90;;;;;;5073150;28;20071;-85
2023/01/25 02:20:00;;;;;;;45.75;23.15;;;0.40;99.90;;;;;;5072731;28;20044;-85
2023/01/25 02:22:34;;;;;;;47.08;24.23;;;0.30;99.90;;;;;;5072915;28;20036;-82
2023/01/25 02:25:10;;;;;;;45.72;24.77;;;0.40;99.90;;;;;;5073212;28;20169;-84
2023/01/25 02:27:41;;;;;;;45.92;24.42;;;0.40;99.90;;;;;;5073170;28;20051;-84
2023/01/25 02:30:07;;;;;;;45.70;24.40;;;0.40;99.90;;;;;;5073876;28;20043;-84
2023/01/25 02:32:33;;;;;;;44.60;23.40;;;0.30;99.90;;;;;;5056196;28;20052;-83
2023/01/25 02:34:59;;;;;;;46.42;25.27;;;0.30;99.90;;;;;;5072605;28;20056;-84
2023/01/25 02:37:25;;;;;;;45.03;24.77;;;0.30;99.90;;;;;;5072441;28;20131;-84
2023/01/25 02:39:51;;;;;;;44.47;23.27;;;0.30;99.90;;;;;;5073777;28;20083;-82
2023/01/25 02:42:17;;;;;;;43.45;23.42;;;0.40;99.90;;;;;;5072904;28;20090;-84
2023/01/25 02:44:42;;;;;;;46.28;23.63;;;0.60;99.90;;;;;;5072976;28;20411;-82
2023/01/25 02:47:08;;;;;;;46.40;24.35;;;0.90;99.90;;;;;;5073859;28;20373;-84
2023/01/25 02:49:35;;;;;;;47.65;25.08;;;0.80;99.90;;;;;;5072127;28;20162;-84
2023/01/25 02:52:02;;;;;;;43.85;24.48;;;0.40;99.90;;;;;;5072505;28;20088;-82
2023/01/25 02:54:27;;;;;;;41.00;22.45;;;0.30;99.90;;;;;;5072462;28;20048;-84
2023/01/25 02:56:53;;;;;;;45.17;23.42;;;0.40;99.90;;;;;;5073005;28;20471;-84
2023/01/25 02:59:19;;;;;;;43.95;22.73;;;0.20;99.90;;;;;;5072648;28;20197;-83
2023/01/25 03:01:45;;;;;;;39.80;22.52;;;0.20;99.90;;;;;;5073554;28;20047;-83
2023/01/25 03:04:12;;;;;;;39.13;21.37;;;0.70;99.90;;;;;;5072152;28;20534;-82
2023/01/25 03:06:39;;;;;;;38.97;20.90;;;0.20;99.90;;;;;;5073943;28;20128;-82
2023/01/25 03:09:08;;;;;;;42.17;23.00;;;0.30;99.90;;;;;;5072156;28;20044;-84
2023/01/25 03:11:34;;;;;;;43.40;22.75;;;0.20;99.90;;;;;;5072851;28;20369;-84
2023/01/25 03:14:00;;;;;;;40.25;21.85;;;0.20;99.90;;;;;;5072354;28;20052;-84
2023/01/25 03:16:25;;;;;;;38.10;21.55;;;0.20;99.90;;;;;;5073324;28;20048;-84
2023/01/25 03:18:54;;;;;;;36.67;20.67;;;0.30;99.90;;;;;;5072304;28;20080;-82
2023/01/25 03:21:21;;;;;;;34.45;20.40;;;0.60;99.90;;;;;;5075413;28;20040;-83
2023/01/25 03:23:52;;;;;;;34.38;20.45;;;0.20;99.90;;;;;;5059757;28;20434;-82
2023/01/25 03:26:20;;;;;;;37.60;20.90;;;0.20;99.90;;;;;;5076434;28;20389;-82
2023/01/25 03:28:46;;;;;;;37.70;20.30;;;0.20;99.90;;;;;;5075836;28;20094;-83
2023/01/25 03:31:14;;;;;;;38.22;21.00;;;0.90;99.90;;;;;;5075984;28;20044;-82
2023/01/25 03:33:40;;;;;;;39.35;22.15;;;0.30;99.90;;;;;;5076000;28;20041;-83
2023/01/25 03:36:07;;;;;;;42.40;23.25;;;0.30;99.90;;;;;;5076151;28;20384;-83
2023/01/25 03:38:35;;;;;;;41.28;22.35;;;0.20;99.90;;;;;;5077079;28;20036;-85
2023/01/25 03:41:02;;;;;;;38.08;21.77;;;2.70;99.90;;;;;;5076030;28;20037;-84
2023/01/25 03:43:28;;;;;;;43.95;23.25;;;0.20;99.90;;;;;;5075825;28;20127;-83
2023/01/25 03:45:57;;;;;;;38.88;21.95;;;0.30;99.90;;;;;;5075728;28;20045;-82
2023/01/25 03:48:23;;;;;;;40.88;22.13;;;0.30;99.90;;;;;;5075325;28;20492;-82
2023/01/25 03:50:55;;;;;;;43.30;22.58;;;0.30;99.90;;;;;;5075615;28;20040;-82
2023/01/25 03:53:31;;;;;;;42.13;22.35;;;1.10;99.90;;;;;;5076856;28;20044;-83
2023/01/25 03:56:07;;;;;;;44.42;23.77;;;0.30;99.90;;;;;;5075579;28;20048;-82
2023/01/25 03:58:34;;;;;;;43.72;22.52;;;0.30;99.90;;;;;;5076703;28;20040;-82
2023/01/25 04:01:00;;;;;;;;;;;0.30;99.90;;;;;;5076057;28;20041;-82
2023/01/25 04:03:26;;;;;;;41.90;22.92;;;1.40;99.90;;;;;;5076636;28;19970;-84
2023/01/25 04:05:54;;;;;;;43.25;23.35;;;0.30;99.90;;;;;;5076536;28;20059;-84
2023/01/25 04:08:21;;;;;;;43.22;23.08;;;0.50;99.90;;;;;;5075510;28;20087;-82
2023/01/25 04:10:52;;;;;;;46.72;24.30;;;0.20;99.90;;;;;;5076560;28;20040;-83
2023/01/25 04:13:19;;;;;;;47.45;24.33;;;0.20;99.90;;;;;;5075518;28;20059;-85
2023/01/25 04:15:44;;;;;;;45.42;24.42;;;0.20;99.90;;;;;;5076365;28;20090;-83
2023/01/25 04:18:10;;;;;;;50.30;25.13;;;0.50;99.90;;;;;;5059174;28;20036;-83
2023/01/25 04:20:36;;;;;;;50.38;25.80;;;0.20;99.90;;;;;;5076124;28;20384;-85
2023/01/25 04:23:01;;;;;;;52.53;26.55;;;0.10;99.90;;;;;;5076041;28;20550;-84
2023/01/25 04:25:27;;;;;;;50.92;25.77;;;0.10;99.90;;;;;;5058379;28;20044;-83
2023/01/25 04:27:52;;;;;;;46.35;23.67;;;0.20;99.90;;;;;;5074996;28;20044;-84
2023/01/25 04:30:18;;;;;;;50.42;26.25;;;0.20;99.90;;;;;;5058265;28;20086;-85
2023/01/25 04:32:44;;;;;;;48.60;24.55;;;0.20;99.90;;;;;;5075751;28;20044;-83
2023/01/25 04:35:09;;;;;;;46.50;24.17;;;0.20;99.90;;;;;;5075533;28;20516;-82
2023/01/25 04:37:35;;;;;;;48.42;24.80;;;0.30;99.90;;;;;;5075091;28;20087;-83
2023/01/25 04:40:01;;;;;;;44.15;23.63;;;0.30;99.90;;;;;;5074820;28;20076;-84
2023/01/25 04:42:26;;;;;;;47.17;24.75;;;0.30;99.90;;;;;;5074916;28;20494;-84
2023/01/25 04:44:52;;;;;;;45.75;23.45;;;0.50;99.90;;;;;;5074546;28;20048;-82
2023/01/25 04:47:17;;;;;;;45.30;23.92;;;1.20;99.90;;;;;;5074694;28;20131;-82
2023/01/25 04:49:43;;;;;;;43.78;22.90;;;0.20;99.90;;;;;;5074155;28;20052;-84
2023/01/25 04:52:09;;;;;;;46.45;22.73;;;0.30;99.90;;;;;;5075807;28;20052;-83
2023/01/25 04:54:34;;;;;;;40.92;22.35;;;0.20;99.90;;;;;;5074554;28;20506;-82
2023/01/25 04:57:00;;;;;;;43.03;22.25;;;0.20;99.90;;;;;;5074650;28;20044;-81
2023/01/25 04:59:25;;;;;;;43.75;22.95;;;0.20;99.90;;;;;;5074316;28;20036;-84
2023/01/25 05:01:51;;;;;;;41.05;21.13;;;0.20;99.90;;;;;;5075117;28;20314;-82
2023/01/25 05:04:16;;;;;;;43.92;22.38;;;0.20;99.90;;;;;;5075521;28;20048;-82
2023/01/25 05:06:42;;;;;;;40.47;21.83;;;0.20;99.90;;;;;;5075536;28;20051;-83
2023/01/25 05:09:08;;;;;;;40.55;21.38;;;0.20;99.90;;;;;;5074313;28;20127;-83
2023/01/25 05:11:34;;;;;;;42.55;22.40;;;0.80;99.90;;;;;;5057565;28;20048;-82
2023/01/25 05:14:00;;;;;;;38.70;20.52;;;0.20;99.90;;;;;;5075794;28;20506;-84
2023/01/25 05:16:25;;;;;;;34.33;19.83;;;0.20;99.90;;;;;;5074647;28;20048;-85
2023/01/25 05:18:53;;;;;;;39.03;19.77;;;0.20;99.90;;;;;;5075488;28;20036;-82
2023/01/25 05:24:02;;;;;;;40.53;20.83;;;0.20;99.90;;;;;;5075050;28;20044;-84
2023/01/25 05:29:12;;;;;;;35.53;19.75;;;0.20;99.90;;;;;;5075270;28;20488;-82
2023/01/25 05:31:38;;;;;;;37.20;20.95;;;0.10;99.90;;;;;;5075112;28;20061;-84
2023/01/25 05:34:03;;;;;;;35.60;19.48;;;0.10;99.90;;;;;;5073711;28;20408;-83
2023/01/25 05:36:29;;;;;;;40.03;20.30;;;0.10;99.90;;;;;;5073820;28;20040;-83
2023/01/25 05:38:55;;;;;;;35.15;18.45;;;0.10;99.90;;;;;;5073916;28;20186;-83
2023/01/25 05:41:20;;;;;;;34.50;19.50;;;1.00;99.90;;;;;;5074701;28;20050;-84
2023/01/25 05:43:49;;;;;;;38.55;20.40;;;0.10;99.90;;;;;;5074653;28;20398;-84
2023/01/25 05:46:14;;;;;;;40.10;20.60;;;-0.10;99.90;;;;;;5073460;28;20056;-86
2023/01/25 05:48:40;;;;;;;36.67;19.85;;;-0.20;99.90;;;;;;5073172;28;20056;-83
2023/01/25 05:51:06;;;;;;;37.53;20.23;;;0.30;99.90;;;;;;5056744;28;20076;-79
2023/01/25 05:53:31;;;;;;;36.78;20.15;;;0.00;99.90;;;;;;5074419;28;20040;-83
2023/01/25 05:56:06;;;;;;;40.03;20.63;;;0.00;99.90;;;;;;5074875;28;20043;-81
2023/01/25 05:58:32;;;;;;;37.72;20.52;;;0.00;99.90;;;;;;5073664;28;20072;-81
2023/01/25 06:01:01;;;;;;;38.33;20.35;;;0.00;99.90;;;;;;5074290;28;20154;-83
2023/01/25 06:03:27;;;;;;;40.92;21.38;;;0.40;99.90;;;;;;5073381;28;20127;-83
2023/01/25 06:05:58;;;;;;;39.38;22.25;;;0.20;99.90;;;;;;5074344;28;20531;-84
2023/01/25 06:08:24;;;;;;;34.83;19.38;;;0.00;99.90;;;;;;5073271;28;20132;-82
2023/01/25 06:10:50;;;;;;;39.85;20.17;;;0.00;99.90;;;;;;5074308;28;20132;-81
2023/01/25 06:13:16;;;;;;;38.45;21.30;;;-0.10;99.90;;;;;;5074218;28;20091;-85
2023/01/25 06:15:50;;;;;;;37.95;20.00;;;1.10;99.90;;;;;;5072964;28;20048;-82
2023/01/25 06:18:15;;;;;;;39.50;20.85;;;-0.10;99.90;;;;;;5072656;28;20047;-84
2023/01/25 06:20:41;;;;;;;44.08;22.73;;;0.40;99.90;;;;;;5073924;28;20036;-84
2023/01/25 06:23:06;;;;;;;40.38;20.92;;;0.00;99.90;;;;;;5072881;28;20514;-84
2023/01/25 06:25:32;;;;;;;40.63;21.58;;;-0.10;99.90;;;;;;5073568;28;20043;-86
2023/01/25 06:27:57;;;;;;;36.53;21.00;;;0.00;99.90;;;;;;5073055;28;20036;-86
2023/01/25 06:30:23;;;;;;;41.80;20.55;;;0.30;99.90;;;;;;5073825;28;20048;-84
2023/01/25 06:32:49;;;;;;;39.88;20.27;;;0.00;99.90;;;;;;5073287;28;20543;-83
2023/01/25 06:35:15;;;;;;;41.13;22.40;;;0.00;99.90;;;;;;5073802;28;20075;-84
2023/01/25 06:37:40;;;;;;;39.53;21.05;;;0.00;99.90;;;;;;5073716;28;20480;-84
2023/01/25 06:40:06;;;;;;;39.17;20.58;;;0.40;99.90;;;;;;5072551;28;20037;-83
2023/01/25 06:42:32;;;;;;;38.77;19.80;;;0.00;99.90;;;;;;5073051;28;20041;-85
2023/01/25 06:44:57;;;;;;;39.10;22.08;;;-0.10;99.90;;;;;;5073633;28;20054;-84
2023/01/25 06:47:23;;;;;;;38.90;21.20;;;-0.20;99.90;;;;;;5073633;28;20640;-82
2023/01/25 06:49:48;;;;;;;40.53;20.55;;;-0.10;99.90;;;;;;5073561;28;20125;-84
2023/01/25 06:52:14;;;;;;;41.15;22.15;;;-0.10;99.90;;;;;;5073503;28;20047;-85
2023/01/25 06:54:40;;;;;;;35.25;19.02;;;-0.10;99.90;;;;;;5073802;28;20071;-85
2023/01/25 06:57:07;;;;;;;34.25;19.45;;;0.00;99.90;;;;;;5072515;28;20472;-84
2023/01/25 06:59:33;;;;;;;39.15;20.65;;;0.00;99.90;;;;;;5072492;28;20053;-83
2023/01/25 07:01:58;;;;;;;36.58;19.10;;;0.00;99.90;;;;;;5072601;28;20480;-82
2023/01/25 07:04:24;;;;;;;38.63;20.08;;;0.00;99.90;;;;;;5055719;28;20485;-83
2023/01/25 07:06:50;;;;;;;37.17;19.52;;;0.30;99.90;;;;;;5072322;28;20133;-85
2023/01/25 07:09:16;;;;;;;35.17;18.13;;;0.00;99.90;;;;;;5072503;28;20109;-84
2023/01/25 07:11:42;;;;;;;32.40;18.17;;;0.00;99.90;;;;;;5072442;28;20044;-83
2023/01/25 07:14:08;;;;;;;32.28;17.85;;;0.00;99.90;;;;;;5073506;28;20063;-86
2023/01/25 07:16:37;;;;;;;30.63;17.38;;;0.00;99.90;;;;;;5072222;28;20052;-83
2023/01/25 07:19:09;;;;;;;32.15;18.02;;;-0.30;99.90;;;;;;5055566;28;20044;-84
2023/01/25 07:21:35;;;;;;;30.30;17.65;;;0.00;99.90;;;;;;5072379;28;20084;-84
2023/01/25 07:24:03;;;;;;;33.38;17.73;;;1.50;99.90;;;;;;5072996;28;20399;-85
2023/01/25 07:26:29;;;;;;;33.75;17.58;;;0.00;99.90;;;;;;5072048;28;20040;-83
2023/01/25 07:28:56;;;;;;;32.53;17.60;;;0.00;99.90;;;;;;5070565;28;20032;-83
2023/01/25 07:31:22;;;;;;;31.80;17.30;;;0.00;99.90;;;;;;5070271;28;20055;-84
2023/01/25 07:33:58;;;;;;;31.73;17.83;;;0.00;99.90;;;;;;5055546;28;20102;-83
2023/01/25 07:36:24;;;;;;;30.35;16.75;;;-0.30;99.90;;;;;;5072351;28;20499;-84
2023/01/25 07:38:55;;;;;;;33.47;18.05;;;-0.10;99.90;;;;;;5071745;28;20047;-83
2023/01/25 07:41:21;;;;;;;31.75;18.00;;;0.00;99.90;;;;;;5071866;28;20105;-83
2023/01/25 07:43:47;;;;;;;30.08;17.15;;;-0.60;99.90;;;;;;5072105;28;20052;-84
2023/01/25 07:46:13;;;;;;;30.43;17.23;;;-0.20;99.90;;;;;;5055372;28;20040;-84
2023/01/25 07:48:43;;;;;;;29.27;17.10;;;0.00;99.90;;;;;;5072774;28;20416;-83
2023/01/25 07:51:43;;;;;;;30.63;16.23;;;0.00;99.90;;;;;;5073620;28;20399;-84
2023/01/25 07:54:03;;;;;;;33.15;17.58;;;0.00;99.90;;;;;;5086552;28;20049;-83
2023/01/25 07:56:32;;;;;;;29.73;17.13;;;0.00;99.90;;;;;;5054946;28;20048;-84
2023/01/25 07:58:59;;;;;;;32.55;15.93;;;0.00;99.90;;;;;;5071899;28;20052;-84
2023/01/25 08:01:25;;;;;;;;;;;0.10;99.90;;;;;;5055710;28;20109;-83
2023/01/25 08:03:52;;;;;;;31.73;17.08;;;0.00;99.90;;;;;;5055133;28;19920;-84
2023/01/25 08:06:26;;;;;;;28.25;16.10;;;0.00;99.90;;;;;;5071960;28;20614;-83
2023/01/25 08:08:53;;;;;;;31.80;16.55;;;0.20;99.90;;;;;;5074201;28;20443;-83
2023/01/25 08:11:25;;;;;;;34.42;17.65;;;0.00;99.90;;;;;;5075256;28;20044;-84
2023/01/25 08:13:51;;;;;;;30.63;17.40;;;-0.10;99.90;;;;;;5059411;28;20064;-84
2023/01/25 08:16:18;;;;;;;29.15;16.65;;;-0.10;99.90;;;;;;5076393;28;20483;-83
2023/01/25 08:18:52;;;;;;;33.15;17.95;;;-0.10;99.90;;;;;;5075287;28;20443;-84
2023/01/25 08:21:18;;;;;;;32.08;17.88;;;0.00;99.90;;;;;;5075337;28;20045;-83
2023/01/25 08:23:44;;;;;;;31.17;17.27;;;-0.10;99.90;;;;;;5075092;28;20055;-83
2023/01/25 08:26:12;;;;;;;33.22;16.17;;;-0.10;99.90;;;;;;5058515;28;20085;-84
2023/01/25 08:28:38;;;;;;;32.35;17.05;;;-0.10;99.90;;;;;;5074934;28;20094;-83
2023/01/25 08:31:12;;;;;;;31.52;16.85;;;-0.10;99.90;;;;;;5076097;28;20048;-84
2023/01/25 08:33:38;;;;;;;30.40;16.85;;;-0.10;99.90;;;;;;5075152;28;20044;-84
2023/01/25 08:36:06;;;;;;;28.17;16.02;;;-0.10;99.90;;;;;;5076051;28;20060;-83
2023/01/25 08:38:32;;;;;;;30.67;17.17;;;0.00;99.90;;;;;;5076248;28;20049;-83
2023/01/25 08:41:11;;;;;;;30.98;16.17;;;0.00;99.90;;;;;;5075903;28;20563;-83
2023/01/25 08:43:37;;;;;;;31.13;17.70;;;0.00;99.90;;;;;;5074386;28;20381;-83
2023/01/25 08:46:03;;;;;;;33.80;17.53;;;0.00;99.90;;;;;;5074796;28;20045;-84
2023/01/25 08:48:29;;;;;;;31.23;17.00;;;0.00;99.90;;;;;;5075892;28;20056;-83
2023/01/25 08:50:54;;;;;;;31.23;17.02;;;0.10;99.90;;;;;;5058136;28;20283;-84
2023/01/25 08:53:20;;;;;;;33.88;17.65;;;0.10;99.90;;;;;;5058051;28;20044;-83
2023/01/25 08:55:46;;;;;;;31.92;17.08;;;0.00;99.90;;;;;;5074461;28;20124;-83
2023/01/25 08:58:12;;;;;;;29.20;16.05;;;0.00;99.90;;;;;;5075573;28;20044;-83
2023/01/25 09:00:39;;;;;;;31.55;17.73;;;1.00;99.90;;;;;;5075436;28;20102;-83
2023/01/25 09:03:09;;;;;;;;;;;0.10;99.90;;;;;;5075947;28;20059;-83
2023/01/25 09:05:36;;;;;;;31.88;17.92;;;0.00;99.90;;;;;;5074540;28;19921;-83
2023/01/25 09:08:02;;;;;;;32.53;17.27;;;0.00;99.90;;;;;;5075378;28;20052;-82
2023/01/25 09:10:28;;;;;;;31.92;18.52;;;0.10;99.90;;;;;;5073753;28;20037;-83
2023/01/25 09:12:54;;;;;;;31.13;17.92;;;0.70;99.90;;;;;;5074061;28;20086;-83
2023/01/25 09:15:21;;;;;;;32.38;18.10;;;0.00;99.90;;;;;;5074160;28;20052;-83
2023/01/25 09:17:50;;;;;;;33.28;18.67;;;0.00;99.90;;;;;;5063247;28;20053;-83
2023/01/25 09:20:16;;;;;;;35.60;18.63;;;0.00;99.90;;;;;;5069394;28;20457;-83
2023/01/25 09:22:41;;;;;;;33.60;18.30;;;1.60;99.90;;;;;;5073465;28;20048;-83
2023/01/25 09:25:08;;;;;;;36.72;20.08;;;0.00;99.90;;;;;;5074900;28;20045;-83
2023/01/25 09:27:33;;;;;;;36.83;17.95;;;-0.10;99.90;;;;;;5073974;28;20052;-83
2023/01/25 09:29:59;;;;;;;36.70;18.55;;;-0.10;99.90;;;;;;5073624;28;20036;-84
2023/01/25 09:32:25;;;;;;;35.03;18.38;;;0.40;99.90;;;;;;5073751;28;20040;-84
2023/01/25 09:34:50;;;;;;;33.50;17.90;;;-0.50;99.90;;;;;;5073494;28;20044;-83
2023/01/25 09:37:16;;;;;;;33.38;17.75;;;0.40;99.90;;;;;;5073525;28;20055;-84
2023/01/25 09:39:42;;;;;;;34.78;17.98;;;-0.10;99.90;;;;;;5073406;28;20043;-83
2023/01/25 09:42:10;;;;;;;35.67;18.45;;;0.90;99.90;;;;;;5073473;28;20044;-83
2023/01/25 09:45:02;;;;;;;34.60;18.55;;;0.10;99.90;;;;;;5073649;28;20055;-83
2023/01/25 09:47:41;;;;;;;33.65;18.70;;;0.00;99.90;;;;;;5056376;28;20553;-83
2023/01/25 09:50:30;;;;;;;32.85;18.25;;;0.00;99.90;;;;;;5073395;28;20040;-83
2023/01/25 09:53:30;;;;;;;35.15;19.00;;;0.00;99.90;;;;;;5073958;28;20476;-83
2023/01/25 09:56:13;;;;;;;39.00;20.45;;;0.10;99.90;;;;;;5072877;28;20048;-84
2023/01/25 09:58:43;;;;;;;33.17;17.40;;;0.10;99.90;;;;;;5056737;28;20090;-83
2023/01/25 10:01:12;;;;;;;35.72;18.65;;;0.30;99.90;;;;;;5072859;28;20503;-83
2023/01/25 10:03:54;;;;;;;34.08;18.45;;;0.20;99.90;;;;;;5073139;28;20053;-83
2023/01/25 10:06:26;;;;;;;31.42;17.35;;;0.20;99.90;;;;;;5073773;28;20041;-83
2023/01/25 10:09:33;;;;;;;35.40;18.95;;;0.30;99.90;;;;;;5056354;28;20036;-83
2023/01/25 10:12:14;;;;;;;35.85;18.52;;;0.20;99.90;;;;;;5059392;28;20105;-83
2023/01/25 10:14:39;;;;;;;33.13;18.70;;;0.80;99.90;;;;;;5073883;28;20048;-83
2023/01/25 10:17:22;;;;;;;34.97;19.40;;;0.30;99.90;;;;;;5073949;28;20043;-84
2023/01/25 10:20:01;;;;;;;33.47;17.90;;;0.20;99.90;;;;;;5073997;28;20119;-84
2023/01/25 10:22:31;;;;;;;35.63;17.90;;;0.20;99.90;;;;;;5073017;28;20426;-83
2023/01/25 10:25:21;;;;;;;35.35;17.92;;;0.20;99.90;;;;;;5072492;28;20436;-83
2023/01/25 10:28:12;;;;;;;35.92;18.63;;;0.20;99.90;;;;;;5072337;28;20040;-83
2023/01/25 10:30:53;;;;;;;31.70;17.38;;;0.20;99.90;;;;;;5053523;28;20086;-83
2023/01/25 10:33:20;;;;;;;35.08;17.83;;;0.20;99.90;;;;;;5072852;28;20044;-83
2023/01/25 10:35:48;;;;;;;30.27;16.55;;;-0.30;99.90;;;;;;5073290;28;20048;-79
2023/01/25 10:38:35;;;;;;;30.55;16.70;;;0.20;99.90;;;;;;5073631;28;20553;-79
2023/01/25 10:41:13;;;;;;;28.27;15.82;;;0.10;99.90;;;;;;5072584;28;20127;-80
2023/01/25 10:43:38;;;;;;;31.15;15.88;;;0.10;99.90;;;;;;5072447;28;20060;-79
2023/01/25 10:46:22;;;;;;;31.27;17.48;;;0.70;99.90;;;;;;5073425;28;20040;-79
2023/01/25 10:48:47;;;;;;;30.50;16.10;;;0.10;99.90;;;;;;5073558;28;20394;-79
2023/01/25 10:51:42;;;;;;;30.65;16.10;;;0.60;99.90;;;;;;5073524;28;20155;-84
2023/01/25 10:54:14;;;;;;;30.95;15.90;;;0.60;99.90;;;;;;5056469;28;20459;-78
2023/01/25 10:56:41;;;;;;;28.27;15.73;;;0.40;99.90;;;;;;5073277;28;20050;-77
2023/01/25 10:59:22;;;;;;;30.70;16.05;;;0.10;99.90;;;;;;5073427;28;20106;-79
2023/01/25 11:01:47;;;;;;;29.90;16.38;;;0.10;99.90;;;;;;5073460;28;20066;-80
2023/01/25 11:04:34;;;;;;;28.20;15.80;;;0.10;99.90;;;;;;5073578;28;20041;-79
2023/01/25 11:07:01;;;;;;;29.02;15.27;;;0.20;99.90;;;;;;5073041;28;20075;-79
2023/01/25 11:09:32;;;;;;;30.50;16.35;;;0.20;99.90;;;;;;5073250;28;20123;-79
2023/01/25 11:12:01;;;;;;;33.58;17.55;;;0.20;99.90;;;;;;5073181;28;20086;-80
2023/01/25 11:14:29;;;;;;;30.58;16.30;;;0.20;99.90;;;;;;5072058;28;20045;-79
2023/01/25 11:16:56;;;;;;;29.17;15.98;;;0.50;99.90;;;;;;5071555;28;20131;-82
2023/01/25 11:19:30;;;;;;;35.55;17.20;;;0.20;99.90;;;;;;5072267;28;20040;-79
2023/01/25 11:21:57;;;;;;;28.13;15.57;;;0.20;99.90;;;;;;5073093;28;20080;-78
2023/01/25 11:24:27;;;;;;;;;;;0.20;99.90;;;;;;5073508;28;20045;-78
2023/01/25 11:27:24;;;;;;;32.60;17.13;;;0.30;99.90;;;;;;5071745;28;19924;-78
2023/01/25 11:30:17;;;;;;;30.60;16.55;;;0.30;99.90;;;;;;5073124;28;20041;-78
2023/01/25 11:32:43;;;;;;;35.22;16.95;;;0.30;99.90;;;;;;5071943;28;20046;-78
2023/01/25 11:35:14;;;;;;;32.22;16.20;;;0.20;99.90;;;;;;5072996;28;20051;-78
2023/01/25 11:38:03;;;;;;;34.85;17.67;;;0.30;99.90;;;;;;5072806;28;20053;-79
2023/01/25 11:40:38;;;;;;;32.15;17.13;;;0.30;99.90;;;;;;5072577;28;20051;-78
2023/01/25 11:43:19;;;;;;;26.98;14.07;;;0.30;99.90;;;;;;5075742;28;20041;-78
2023/01/25 11:45:48;;;;;;;31.35;17.23;;;0.20;99.90;;;;;;5076934;28;20166;-80
2023/01/25 11:48:51;;;;;;;30.88;15.90;;;0.10;99.90;;;;;;5075443;28;20060;-81
2023/01/25 11:51:23;;;;;;;33.92;17.88;;;0.10;99.90;;;;;;5076301;28;20476;-79
2023/01/25 11:54:14;;;;;;;31.02;17.58;;;0.00;99.90;;;;;;5076658;28;20056;-81
2023/01/25 11:56:52;;;;;;;32.25;15.98;;;0.00;99.90;;;;;;5075683;28;20488;-81
2023/01/25 11:59:47;;;;;;;39.33;17.77;;;0.00;99.90;;;;;;5058542;28;20139;-81
2023/01/25 12:02:45;;;;;;;38.42;17.52;;;0.10;99.90;;;;;;5076521;28;20484;-83
2023/01/25 12:05:42;;;;;;;29.58;16.40;;;0.00;99.90;;;;;;5058776;28;20044;-86
2023/01/25 12:08:34;;;;;;;33.75;18.00;;;0.00;99.90;;;;;;5074536;28;20162;-86
2023/01/25 12:11:39;;;;;;;28.35;14.07;;;0.00;99.90;;;;;;5073582;28;20057;-84
2023/01/25 12:14:29;;;;;;;35.85;17.90;;;0.00;99.90;;;;;;5076335;28;20041;-87
2023/01/25 12:17:07;;;;;;;31.67;17.10;;;0.00;99.90;;;;;;5058616;28;20059;-85
2023/01/25 12:19:47;;;;;;;;;;;-0.10;99.90;;;;;;5076488;28;20041;-84
2023/01/25 12:22:19;;;;;;;34.60;18.35;;;-0.10;99.90;;;;;;5075831;28;20383;-84
2023/01/25 12:25:10;;;;;;;35.35;18.17;;;0.00;99.90;;;;;;5058537;28;20399;-84
2023/01/25 12:27:56;;;;;;;32.80;18.25;;;0.00;99.90;;;;;;5075498;28;20139;-84
2023/01/25 12:30:39;;;;;;;30.95;16.63;;;0.00;99.90;;;;;;5034681;28;20052;-85
2023/01/25 12:33:12;;;;;;;33.22;17.90;;;0.10;99.90;;;;;;5075163;28;20083;-84
2023/01/25 12:35:44;;;;;;;33.13;16.98;;;0.10;99.90;;;;;;5074737;28;20132;-86
2023/01/25 12:38:56;;;;;;;32.03;16.13;;;0.00;99.90;;;;;;5058127;28;20048;-87
2023/01/25 12:41:39;;;;;;;33.03;17.17;;;0.00;99.90;;;;;;5013538;28;20057;-86
2023/01/25 12:44:17;;;;;;;37.22;17.88;;;0.00;99.90;;;;;;5076165;28;20507;-85
2023/01/25 12:47:21;;;;;;;31.63;16.63;;;0.00;99.90;;;;;;5058225;28;20041;-85
2023/01/25 12:50:21;;;;;;;34.05;18.08;;;-0.10;99.90;;;;;;5045732;28;20048;-87
2023/01/25 12:53:12;;;;;;;35.38;17.05;;;-0.20;99.90;;;;;;5074487;28;20037;-86
2023/01/25 12:55:39;;;;;;;33.40;16.83;;;-0.20;99.90;;;;;;5057439;28;20500;-88
2023/01/25 12:58:11;;;;;;;36.38;17.73;;;-0.10;99.90;;;;;;5075485;28;20055;-86
2023/01/25 13:00:55;;;;;;;32.67;17.67;;;2.00;99.90;;;;;;5074476;28;20090;-86